Time;durP1;ratioP1;P1;durP2;ratioP2;P2;SDS_P1;SDS_P2;PMS_P1;PMS_P2;Temp;Humidity;BMP_temperature;BMP_pressure;BME280_temperature;BME280_humidity;BME280_pressure;Samples;Min_cycle;Max_cycle;Signal;HPM_P1;HPM_P2
2023/09/30 00:02:21;;;;;;;8.57;4.93;;;;;;;22.80;49.72;99738.09;5094230;28;20228;-66
2023/09/30 00:04:47;;;;;;;10.80;5.20;;;;;;;22.81;49.82;99745.16;5094100;28;20195;-67
2023/09/30 00:07:14;;;;;;;8.07;4.87;;;;;;;22.80;49.79;99743.53;5093979;28;20247;-66
2023/09/30 00:09:42;;;;;;;6.73;4.97;;;;;;;22.80;49.96;99740.00;5073893;28;20193;-67
2023/09/30 00:12:09;;;;;;;5.57;4.80;;;;;;;22.78;49.71;99745.69;5074176;28;20239;-66
2023/09/30 00:14:37;;;;;;;9.77;4.20;;;;;;;22.66;50.30;99741.63;5073404;28;20197;-67
2023/09/30 00:17:04;;;;;;;8.00;4.57;;;;;;;22.68;50.27;99745.69;5073495;28;20196;-67
2023/09/30 00:19:32;;;;;;;9.13;4.70;;;;;;;22.66;50.82;99739.69;5073365;28;20315;-67
2023/09/30 00:21:59;;;;;;;9.77;4.40;;;;;;;22.59;50.67;99736.47;5073689;28;20188;-67
2023/09/30 00:24:26;;;;;;;6.00;4.87;;;;;;;22.50;50.75;99743.44;5073319;28;20197;-67
2023/09/30 00:26:54;;;;;;;5.97;4.70;;;;;;;22.40;51.07;99729.03;5073093;28;20725;-67
2023/09/30 00:29:21;;;;;;;8.30;4.50;;;;;;;22.27;51.48;99730.38;5073567;28;20193;-67
2023/09/30 00:31:48;;;;;;;9.10;5.00;;;;;;;22.17;51.86;99726.81;5073132;28;20197;-66
2023/09/30 00:34:15;;;;;;;6.20;5.17;;;;;;;22.08;52.04;99734.63;5073414;28;20275;-67
2023/09/30 00:36:42;;;;;;;8.53;4.37;;;;;;;22.00;52.38;99727.00;5073281;28;20188;-67
2023/09/30 00:39:09;;;;;;;10.23;5.27;;;;;;;21.97;52.42;99724.03;5073001;28;20656;-66
2023/09/30 00:41:36;;;;;;;10.30;4.73;;;;;;;21.92;52.60;99727.53;5073421;28;20277;-66
2023/09/30 00:44:04;;;;;;;8.83;5.20;;;;;;;21.93;52.95;99722.94;5073282;28;20272;-67
2023/09/30 00:46:34;;;;;;;6.47;4.53;;;;;;;21.93;54.00;99725.63;5073112;28;20278;-67
2023/09/30 00:49:02;;;;;;;6.20;4.97;;;;;;;21.99;53.10;99724.56;5073134;28;20196;-67
2023/09/30 00:51:30;;;;;;;5.93;4.40;;;;;;;22.05;52.90;99727.03;5072683;28;20250;-67
2023/09/30 00:53:59;;;;;;;5.67;4.97;;;;;;;22.05;52.69;99732.44;5072751;28;20192;-67
2023/09/30 00:56:28;;;;;;;5.40;4.90;;;;;;;22.09;52.74;99735.44;5072190;28;20192;-67
2023/09/30 00:58:56;;;;;;;11.17;4.90;;;;;;;22.22;52.73;99724.91;5072241;28;20311;-67
2023/09/30 01:01:24;;;;;;;9.67;5.03;;;;;;;22.34;52.16;99728.22;5072461;28;20588;-67
2023/09/30 01:03:52;;;;;;;7.23;4.60;;;;;;;22.42;51.90;99729.59;5072503;28;20664;-67
2023/09/30 01:06:19;;;;;;;6.53;5.40;;;;;;;22.48;51.61;99728.56;5072407;28;20235;-67
2023/09/30 01:08:45;;;;;;;5.03;4.63;;;;;;;22.54;51.49;99732.91;5072672;28;20200;-67
2023/09/30 01:11:13;;;;;;;12.00;4.70;;;;;;;22.60;51.08;99734.53;5072318;28;20250;-67
2023/09/30 01:13:40;;;;;;;5.73;4.97;;;;;;;22.61;50.84;99736.97;5072340;28;20200;-67
2023/09/30 01:16:09;;;;;;;8.13;4.80;;;;;;;22.58;50.77;99734.81;5072598;28;20192;-67
2023/09/30 01:18:38;;;;;;;5.67;4.97;;;;;;;22.50;50.47;99738.03;5072492;28;20232;-67
2023/09/30 01:21:06;;;;;;;7.17;5.17;;;;;;;22.46;51.14;99736.94;5072503;28;20200;-66
2023/09/30 01:23:35;;;;;;;4.83;4.30;;;;;;;22.51;51.02;99736.16;5072397;28;20199;-66
2023/09/30 01:26:03;;;;;;;9.47;5.53;;;;;;;22.60;51.33;99734.53;5072509;28;20306;-67
2023/09/30 01:28:30;;;;;;;6.93;5.40;;;;;;;22.64;50.68;99733.75;5072430;28;20270;-66
2023/09/30 01:30:57;;;;;;;6.07;4.63;;;;;;;22.69;50.59;99736.47;5072042;28;20192;-66
2023/09/30 01:33:23;;;;;;;5.47;5.03;;;;;;;22.75;50.38;99729.94;5072250;28;20190;-66
2023/09/30 01:35:50;;;;;;;7.67;5.03;;;;;;;22.76;50.09;99734.31;5071781;28;20192;-67
2023/09/30 01:38:17;;;;;;;6.90;5.07;;;;;;;22.75;50.08;99732.66;5071861;28;20216;-66
2023/09/30 01:40:45;;;;;;;6.20;5.60;;;;;;;22.74;50.19;99736.47;5071942;28;20261;-66
2023/09/30 01:43:13;;;;;;;6.57;4.80;;;;;;;22.69;50.13;99736.47;5072325;28;20208;-66
2023/09/30 01:45:40;;;;;;;5.40;4.97;;;;;;;22.66;50.62;99739.69;5071649;28;20197;-66
2023/09/30 01:48:07;;;;;;;4.87;4.47;;;;;;;22.67;50.69;99738.59;5071835;28;20245;-66
2023/09/30 01:50:34;;;;;;;8.47;5.60;;;;;;;22.69;50.36;99738.34;5072117;28;20190;-67
2023/09/30 01:53:00;;;;;;;7.37;4.90;;;;;;;22.66;50.36;99741.63;5071659;28;20188;-67
2023/09/30 01:55:27;;;;;;;8.63;5.07;;;;;;;22.62;51.49;99733.19;5071569;28;20655;-67
2023/09/30 01:57:55;;;;;;;10.63;4.90;;;;;;;22.60;50.72;99738.06;5071390;28;20219;-67
2023/09/30 02:00:21;;;;;;;11.33;4.60;;;;;;;22.56;51.42;99734.28;5071969;28;20240;-67
2023/09/30 02:02:48;;;;;;;12.57;4.73;;;;;;;22.56;51.02;99731.56;5071536;28;20265;-67
2023/09/30 02:05:15;;;;;;;8.07;4.93;;;;;;;22.40;51.22;99719.03;5071879;28;20195;-67
2023/09/30 02:07:43;;;;;;;9.53;4.97;;;;;;;22.46;51.42;99731.53;5075050;28;20196;-67
2023/09/30 02:10:10;;;;;;;5.67;4.37;;;;;;;22.41;51.35;99733.41;5091782;28;20191;-67
2023/09/30 02:12:37;;;;;;;7.60;4.77;;;;;;;22.37;51.38;99738.50;5091543;28;20187;-67
2023/09/30 02:15:07;;;;;;;9.13;5.03;;;;;;;22.37;51.21;99719.56;5092076;28;20277;-68
2023/09/30 02:17:33;;;;;;;7.93;4.67;;;;;;;22.40;51.07;99729.03;5091490;28;20198;-67
2023/09/30 02:20:01;;;;;;;13.03;4.90;;;;;;;22.35;51.03;99729.88;5091516;28;20694;-66
2023/09/30 02:22:28;;;;;;;5.73;4.60;;;;;;;22.31;51.37;99734.19;5091787;28;20278;-66
2023/09/30 02:24:55;;;;;;;10.97;4.93;;;;;;;22.28;51.37;99729.28;5091825;28;20278;-66
2023/09/30 02:27:22;;;;;;;7.80;4.90;;;;;;;22.19;51.98;99736.31;5091646;28;20192;-67
2023/09/30 02:29:49;;;;;;;8.03;4.77;;;;;;;22.12;52.27;99733.03;5091714;28;20196;-67
2023/09/30 02:32:18;;;;;;;10.13;5.60;;;;;;;22.04;52.80;99733.53;5091600;28;20248;-66
2023/09/30 02:34:44;;;;;;;6.03;4.60;;;;;;;21.90;53.31;99718.03;5091676;28;20195;-66
2023/09/30 02:37:11;;;;;;;13.17;5.10;;;;;;;21.91;54.01;99734.00;5091877;28;20256;-66
2023/09/30 02:39:38;;;;;;;7.37;4.93;;;;;;;21.87;54.30;99738.31;5091586;28;20283;-67
2023/09/30 02:42:05;;;;;;;8.23;5.27;;;;;;;21.84;54.69;99736.13;5091614;28;20272;-67
2023/09/30 02:44:31;;;;;;;7.37;4.70;;;;;;;21.83;54.63;99728.28;5091716;28;20347;-67
2023/09/30 02:46:58;;;;;;;11.87;4.73;;;;;;;21.81;54.68;99717.72;5091468;28;20191;-67
2023/09/30 02:49:26;;;;;;;5.37;4.93;;;;;;;21.79;54.46;99724.47;5091267;28;20196;-67
2023/09/30 02:51:53;;;;;;;10.10;5.57;;;;;;;21.72;54.54;99724.72;5091429;28;20199;-67
2023/09/30 02:54:19;;;;;;;7.80;4.97;;;;;;;21.68;54.34;99737.09;5091575;28;20628;-66
2023/09/30 02:56:46;;;;;;;10.30;4.93;;;;;;;21.71;54.53;99733.09;5091657;28;20598;-67
2023/09/30 02:59:14;;;;;;;6.10;5.60;;;;;;;21.76;54.34;99719.63;5091359;28;20305;-67
2023/09/30 03:01:41;;;;;;;5.33;4.80;;;;;;;21.77;53.84;99729.34;5091462;28;20191;-67
2023/09/30 03:04:09;;;;;;;10.00;4.93;;;;;;;21.70;54.04;99721.47;5091624;28;20248;-67
2023/09/30 03:06:38;;;;;;;8.27;5.10;;;;;;;21.67;53.93;99721.97;5091298;28;20196;-66
2023/09/30 03:09:05;;;;;;;6.50;5.37;;;;;;;21.59;53.73;99719.75;5076415;28;20203;-66
2023/09/30 03:11:32;;;;;;;12.67;5.00;;;;;;;21.52;53.91;99713.75;5070988;28;20192;-66
2023/09/30 03:13:59;;;;;;;9.67;5.13;;;;;;;21.47;54.05;99710.22;5071314;28;20294;-66
2023/09/30 03:16:25;;;;;;;7.40;4.67;;;;;;;21.51;54.74;99712.13;5071072;28;20245;-66
2023/09/30 03:18:52;;;;;;;15.07;4.80;;;;;;;21.57;54.43;99716.50;5070715;28;20216;-66
2023/09/30 03:21:19;;;;;;;11.60;5.20;;;;;;;21.61;53.31;99723.00;5073639;28;20195;-66
2023/09/30 03:23:47;;;;;;;7.57;5.17;;;;;;;21.60;53.27;99718.66;5074422;28;20199;-66
2023/09/30 03:26:15;;;;;;;6.37;4.57;;;;;;;21.58;53.06;99720.81;5074836;28;20191;-67
2023/09/30 03:28:42;;;;;;;7.73;4.83;;;;;;;21.55;52.66;99729.44;5074275;28;20199;-67
2023/09/30 03:31:10;;;;;;;4.77;4.43;;;;;;;21.52;52.87;99734.56;5074607;28;20223;-66
2023/09/30 03:33:37;;;;;;;5.53;5.00;;;;;;;21.43;53.27;99720.72;5074069;28;20196;-66
2023/09/30 03:36:04;;;;;;;4.73;4.20;;;;;;;21.37;53.49;99727.19;5074597;28;20287;-66
2023/09/30 03:38:32;;;;;;;7.97;4.80;;;;;;;21.23;53.44;99725.97;5073971;28;20228;-66
2023/09/30 03:41:00;;;;;;;4.87;4.47;;;;;;;21.03;53.48;99725.81;5074369;28;20238;-66
2023/09/30 03:43:27;;;;;;;7.47;4.57;;;;;;;20.84;54.97;99721.88;5074319;28;20180;-66
2023/09/30 03:45:55;;;;;;;8.57;5.43;;;;;;;20.90;55.69;99722.72;5074152;28;20245;-66
2023/09/30 03:48:22;;;;;;;7.00;4.43;;;;;;;21.04;55.55;99723.94;5074544;28;20196;-67
2023/09/30 03:50:49;;;;;;;8.87;4.90;;;;;;;21.14;54.05;99724.03;5073982;28;20195;-67
2023/09/30 03:53:16;;;;;;;6.83;4.93;;;;;;;21.22;54.35;99726.25;5074168;28;20279;-67
2023/09/30 03:55:42;;;;;;;6.70;4.57;;;;;;;21.23;53.23;99731.38;5073871;28;20228;-67
2023/09/30 03:58:10;;;;;;;11.47;5.37;;;;;;;21.18;53.95;99727.81;5073770;28;20200;-66
2023/09/30 04:00:37;;;;;;;11.67;5.30;;;;;;;21.04;54.48;99713.97;5073646;28;20695;-66
2023/09/30 04:03:04;;;;;;;5.40;4.90;;;;;;;20.94;54.44;99721.97;5073686;28;20682;-67
2023/09/30 04:05:36;;;;;;;12.10;5.00;;;;;;;20.90;54.30;99731.63;5073706;28;20196;-67
2023/09/30 04:08:03;;;;;;;14.57;4.80;;;;;;;20.86;54.42;99730.50;5080059;28;20186;-67
2023/09/30 04:10:30;;;;;;;8.77;5.17;;;;;;;20.78;55.96;99727.47;5093974;28;20195;-67
2023/09/30 04:12:57;;;;;;;6.83;4.43;;;;;;;20.72;54.95;99731.19;5093809;28;20324;-67
2023/09/30 04:15:25;;;;;;;10.63;4.70;;;;;;;20.63;55.00;99719.22;5093513;28;20195;-66
2023/09/30 04:17:52;;;;;;;11.03;5.13;;;;;;;20.72;56.13;99723.91;5093773;28;20245;-66
2023/09/30 04:20:22;;;;;;;10.30;4.90;;;;;;;20.75;55.83;99722.59;5093802;28;20265;-67
2023/09/30 04:22:50;;;;;;;7.20;5.07;;;;;;;20.82;56.46;99729.41;5093375;28;20715;-66
2023/09/30 04:25:17;;;;;;;21.07;6.33;;;;;;;20.85;55.30;99726.19;5093916;28;20191;-66
2023/09/30 04:27:45;;;;;;;12.80;5.70;;;;;;;20.90;54.90;99731.63;5093137;28;20633;-67
2023/09/30 04:30:12;;;;;;;10.40;5.03;;;;;;;20.90;54.77;99737.03;5093666;28;20195;-66
2023/09/30 04:32:40;;;;;;;8.17;5.30;;;;;;;20.93;55.06;99747.34;5092326;28;20206;-66
2023/09/30 04:35:08;;;;;;;9.00;4.53;;;;;;;20.89;55.66;99735.41;5093163;28;20195;-66
2023/09/30 04:37:36;;;;;;;8.10;4.60;;;;;;;21.07;54.78;99747.75;5093288;28;20290;-66
2023/09/30 04:40:07;;;;;;;10.83;5.13;;;;;;;21.21;54.63;99749.75;5093372;28;20268;-66
2023/09/30 04:42:35;;;;;;;8.70;5.00;;;;;;;21.22;54.54;99747.84;5093538;28;20262;-66
2023/09/30 04:45:04;;;;;;;9.20;5.47;;;;;;;21.04;53.86;99753.66;5093240;28;20191;-66
2023/09/30 04:47:32;;;;;;;7.97;4.83;;;;;;;20.86;54.16;99754.81;5092766;28;20187;-66
2023/09/30 04:50:04;;;;;;;5.80;4.30;;;;;;;20.83;55.58;99758.06;5093284;28;20237;-67
2023/09/30 04:52:31;;;;;;;11.00;4.97;;;;;;;21.05;54.72;99761.50;5092782;28;20640;-67
2023/09/30 04:54:58;;;;;;;15.27;5.37;;;;;;;21.20;54.36;99756.25;5092724;28;20252;-66
2023/09/30 04:57:25;;;;;;;8.50;4.77;;;;;;;21.39;53.67;99760.16;5092673;28;20268;-66
2023/09/30 04:59:51;;;;;;;11.10;5.03;;;;;;;21.66;53.27;99763.59;5092743;28;20215;-67
2023/09/30 05:02:18;;;;;;;10.77;5.53;;;;;;;21.92;52.59;99764.59;5092994;28;20187;-67
2023/09/30 05:04:45;;;;;;;8.20;4.60;;;;;;;22.11;51.39;99761.16;5092726;28;20199;-67
2023/09/30 05:07:13;;;;;;;4.87;4.47;;;;;;;22.35;53.86;99759.63;5092865;28;20298;-63
2023/09/30 05:09:41;;;;;;;6.30;5.00;;;;;;;22.82;50.16;99767.66;5092602;28;20279;-63
2023/09/30 05:12:07;;;;;;;5.23;4.30;;;;;;;22.95;47.50;99762.50;5088687;28;20274;-62
2023/09/30 05:14:34;;;;;;;10.40;4.90;;;;;;;23.02;51.68;99756.81;5080192;28;20571;-62
2023/09/30 05:17:01;;;;;;;14.20;4.70;;;;;;;23.53;49.64;99763.88;5082868;28;20188;-63
2023/09/30 05:19:28;;;;;;;9.97;5.70;;;;;;;24.05;47.18;99777.91;5080879;28;20213;-62
2023/09/30 05:21:54;;;;;;;8.97;5.07;;;;;;;24.52;45.10;99779.06;5082409;28;20230;-62
2023/09/30 05:24:22;;;;;;;8.20;5.13;;;;;;;24.93;44.69;99774.22;5077615;28;20199;-62
2023/09/30 05:26:49;;;;;;;7.40;5.37;;;;;;;25.25;42.63;99781.84;5072153;28;20248;-62
2023/09/30 05:29:16;;;;;;;16.17;7.20;;;;;;;25.58;40.60;99781.03;5075636;28;20256;-63
2023/09/30 05:31:43;;;;;;;6.50;4.80;;;;;;;25.71;40.97;99769.47;5092425;28;20202;-63
2023/09/30 05:34:10;;;;;;;10.30;4.87;;;;;;;26.04;39.78;99787.69;5088724;28;21597;-63
2023/09/30 05:36:36;;;;;;;9.73;4.73;;;;;;;26.28;40.01;99781.13;5079451;28;20734;-63
2023/09/30 05:39:04;;;;;;;6.50;4.63;;;;;;;26.51;40.05;99784.91;5091538;28;20725;-63
2023/09/30 05:41:32;;;;;;;7.63;5.00;;;;;;;26.68;37.57;99790.69;5080371;28;20220;-62
2023/09/30 05:43:59;;;;;;;11.93;4.50;;;;;;;26.25;39.47;99792.59;5078637;28;20236;-63
2023/09/30 05:46:27;;;;;;;12.73;4.87;;;;;;;26.08;39.15;99791.44;5082681;28;20191;-62
2023/09/30 05:48:54;;;;;;;14.40;4.73;;;;;;;26.44;39.08;99790.72;5080960;28;20591;-62
2023/09/30 05:51:21;;;;;;;9.00;5.10;;;;;;;26.79;38.58;99792.19;5080956;28;20604;-63
2023/09/30 05:53:48;;;;;;;12.13;4.83;;;;;;;27.06;37.24;99800.50;5074740;28;20250;-63
2023/09/30 05:56:16;;;;;;;7.60;5.30;;;;;;;27.07;37.26;99799.41;5071687;28;20200;-63
2023/09/30 05:58:44;;;;;;;7.90;5.00;;;;;;;26.88;37.93;99795.88;5071348;28;20647;-62
2023/09/30 06:01:12;;;;;;;13.73;5.67;;;;;;;26.63;37.62;99799.78;5071731;28;20211;-63
2023/09/30 06:03:39;;;;;;;10.30;7.93;;;;;;;26.81;38.12;99789.97;5071848;28;20287;-63
2023/09/30 06:06:13;;;;;;;10.47;8.33;;;;;;;27.04;38.30;99791.81;5072077;28;20683;-62
2023/09/30 06:08:40;;;;;;;24.50;13.07;;;;;;;27.36;37.35;99803.59;5078764;28;20203;-62
2023/09/30 06:11:07;;;;;;;31.97;16.77;;;;;;;27.66;37.51;99796.81;5082110;28;20249;-63
2023/09/30 06:13:34;;;;;;;38.13;18.93;;;;;;;27.71;35.99;99791.25;5081168;28;20253;-63
2023/09/30 06:16:03;;;;;;;88.40;50.47;;;;;;;28.04;37.15;99804.59;5081689;28;20663;-63
2023/09/30 06:18:29;;;;;;;35.53;19.97;;;;;;;28.30;36.27;99807.63;5071842;28;20311;-63
2023/09/30 06:20:57;;;;;;;18.00;11.40;;;;;;;28.56;34.97;99806.00;5071621;28;20278;-63
2023/09/30 06:23:24;;;;;;;28.17;9.37;;;;;;;28.69;35.14;99802.44;5080452;28;20197;-63
2023/09/30 06:25:51;;;;;;;17.97;9.47;;;;;;;28.83;34.32;99808.72;5083463;28;20532;-63
2023/09/30 06:28:18;;;;;;;11.87;9.40;;;;;;;28.76;33.56;99811.03;5071437;28;20191;-62
2023/09/30 06:30:46;;;;;;;19.67;10.50;;;;;;;28.59;34.87;99811.66;5083833;28;20670;-62
2023/09/30 06:33:15;;;;;;;9.57;7.50;;;;;;;28.77;34.51;99807.19;5091098;28;20570;-62
2023/09/30 06:35:50;;;;;;;30.17;17.93;;;;;;;28.81;34.37;99803.53;5091130;28;20202;-63
2023/09/30 06:38:17;;;;;;;21.93;12.83;;;;;;;28.56;33.98;99806.84;5085501;28;20282;-65
2023/09/30 06:40:45;;;;;;;21.53;7.37;;;;;;;28.62;33.21;99815.72;5077588;28;20214;-63
2023/09/30 06:43:11;;;;;;;24.93;10.57;;;;;;;28.55;33.30;99816.13;5103595;28;20176;-63
2023/09/30 06:45:41;;;;;;;34.87;15.53;;;;;;;28.65;33.26;99804.16;5090480;28;20191;-62
2023/09/30 06:48:12;;;;;;;24.13;11.23;;;;;;;28.49;32.71;99811.06;5089949;28;20195;-63
2023/09/30 06:50:41;;;;;;;14.60;6.23;;;;;;;28.56;32.51;99812.31;5090016;28;20666;-62
2023/09/30 06:53:09;;;;;;;25.57;12.40;;;;;;;28.43;32.82;99815.03;5089579;28;20243;-63
2023/09/30 06:55:38;;;;;;;16.73;6.40;;;;;;;28.51;32.68;99809.66;5087186;28;20219;-62
2023/09/30 06:58:07;;;;;;;21.00;8.67;;;;;;;28.56;32.26;99816.94;5080882;28;20248;-63
2023/09/30 07:00:35;;;;;;;16.67;5.53;;;;;;;28.62;32.00;99805.59;5072011;28;20223;-61
2023/09/30 07:03:02;;;;;;;9.40;5.37;;;;;;;28.53;32.14;99812.09;5082056;28;20188;-61
2023/09/30 07:05:29;;;;;;;16.00;6.37;;;;;;;28.74;32.39;99813.25;5077989;28;20244;-64
2023/09/30 07:07:57;;;;;;;16.03;6.57;;;;;;;28.92;32.79;99815.06;5077451;28;20221;-62
2023/09/30 07:10:24;;;;;;;11.47;5.77;;;;;;;28.98;31.18;99827.50;5077121;28;20256;-63
2023/09/30 07:12:51;;;;;;;6.53;4.40;;;;;;;29.00;31.13;99811.63;5072293;28;20191;-61
2023/09/30 07:15:17;;;;;;;7.83;5.20;;;;;;;29.20;31.46;99811.16;5079132;28;20245;-61
2023/09/30 07:17:45;;;;;;;6.27;5.10;;;;;;;29.32;31.23;99808.66;5082870;28;20200;-62
2023/09/30 07:20:12;;;;;;;15.00;5.23;;;;;;;29.32;30.03;99813.31;5079385;28;20234;-61
2023/09/30 07:22:39;;;;;;;12.10;4.37;;;;;;;29.14;30.54;99812.38;5086108;28;20268;-62
2023/09/30 07:25:08;;;;;;;83.03;9.67;;;;;;;29.19;32.22;99809.50;5091551;28;20252;-62
2023/09/30 07:27:35;;;;;;;15.33;5.70;;;;;;;29.65;30.64;99811.97;5094333;28;20191;-60
2023/09/30 07:30:02;;;;;;;12.30;5.30;;;;;;;29.86;30.62;99815.78;5085197;28;20192;-59
2023/09/30 07:32:28;;;;;;;11.93;4.77;;;;;;;29.92;30.00;99823.56;5074291;28;20195;-61
2023/09/30 07:34:56;;;;;;;15.43;5.20;;;;;;;29.41;30.27;99817.75;5075750;28;20253;-61
2023/09/30 07:37:22;;;;;;;11.23;5.40;;;;;;;29.14;30.18;99823.31;5091172;28;20252;-63
2023/09/30 07:39:49;;;;;;;11.47;4.20;;;;;;;29.48;30.63;99817.31;5078577;28;20707;-62
2023/09/30 07:42:17;;;;;;;8.00;4.67;;;;;;;29.38;30.15;99823.84;5080441;28;20654;-63
2023/09/30 07:44:44;;;;;;;9.57;4.80;;;;;;;29.76;30.78;99827.03;5068067;28;20283;-62
2023/09/30 07:47:11;;;;;;;5.20;4.50;;;;;;;29.94;30.15;99826.81;5071341;28;20695;-61
2023/09/30 07:49:38;;;;;;;11.73;5.10;;;;;;;29.42;30.06;99818.53;5090704;28;20203;-63
2023/09/30 07:52:05;;;;;;;7.77;4.70;;;;;;;29.67;29.61;99820.69;5091566;28;20195;-62
2023/09/30 07:54:32;;;;;;;9.70;4.73;;;;;;;29.69;29.75;99823.91;5092463;28;20327;-62
2023/09/30 07:56:59;;;;;;;7.93;4.90;;;;;;;29.33;29.99;99818.50;5074421;28;20196;-61
2023/09/30 07:59:27;;;;;;;6.27;4.67;;;;;;;29.83;30.10;99819.16;5072186;28;20192;-63
2023/09/30 08:01:53;;;;;;;7.53;4.53;;;;;;;30.21;29.80;99815.66;5071937;28;20224;-62
2023/09/30 08:04:20;;;;;;;10.30;5.87;;;;;;;30.43;29.31;99817.50;5069844;28;20192;-62
2023/09/30 08:06:47;;;;;;;6.33;5.13;;;;;;;30.31;29.40;99820.88;5071803;28;20294;-62
2023/09/30 08:09:14;;;;;;;11.93;5.20;;;;;;;29.82;29.71;99818.38;5087380;28;20248;-66
2023/09/30 08:11:41;;;;;;;9.70;5.37;;;;;;;29.70;29.28;99820.06;5090012;28;20248;-67
2023/09/30 08:14:09;;;;;;;9.10;5.23;;;;;;;30.03;29.80;99818.59;5086581;28;20199;-65
2023/09/30 08:16:37;;;;;;;13.03;5.33;;;;;;;30.54;29.37;99818.84;5089493;28;20196;-65
2023/09/30 08:19:04;;;;;;;7.93;5.63;;;;;;;30.81;28.45;99818.59;5092138;28;20223;-65
2023/09/30 08:21:31;;;;;;;10.77;5.30;;;;;;;30.32;29.27;99817.00;5090294;28;20227;-68
2023/09/30 08:23:58;;;;;;;8.50;5.37;;;;;;;30.56;29.02;99813.84;5090108;28;20278;-65
2023/09/30 08:26:24;;;;;;;20.43;5.50;;;;;;;30.31;28.42;99809.91;5090880;28;20195;-63
2023/09/30 08:28:51;;;;;;;8.37;5.00;;;;;;;30.22;30.11;99806.34;5091808;28;20264;-64
2023/09/30 08:31:18;;;;;;;13.73;5.23;;;;;;;30.34;29.05;99809.25;5084617;28;20264;-65
2023/09/30 08:33:46;;;;;;;11.70;5.67;;;;;;;30.11;29.50;99804.13;5080198;28;20215;-65
2023/09/30 08:36:13;;;;;;;11.47;5.23;;;;;;;30.17;29.79;99800.97;5079289;28;20188;-64
2023/09/30 08:38:42;;;;;;;13.30;5.60;;;;;;;30.18;29.61;99801.78;5069616;28;20189;-63
2023/09/30 08:41:09;;;;;;;8.10;5.23;;;;;;;30.65;30.14;99809.97;5076264;28;20321;-63
2023/09/30 08:43:38;;;;;;;25.60;5.90;;;;;;;30.85;28.16;99809.41;5090052;28;20195;-63
2023/09/30 08:46:06;;;;;;;14.23;5.60;;;;;;;30.84;28.06;99812.47;5087430;28;20212;-62
2023/09/30 08:48:33;;;;;;;6.87;5.17;;;;;;;31.04;27.78;99812.66;5083979;28;20230;-62
2023/09/30 08:51:02;;;;;;;6.33;4.63;;;;;;;30.88;28.06;99814.25;5074235;28;20195;-63
2023/09/30 08:53:30;;;;;;;13.60;4.80;;;;;;;30.98;26.81;99808.44;5080807;28;20187;-63
2023/09/30 08:55:59;;;;;;;10.43;4.97;;;;;;;30.39;27.68;99783.63;5090335;28;20697;-63
2023/09/30 08:58:29;;;;;;;8.67;4.50;;;;;;;30.77;28.41;99801.97;5074920;28;20192;-63
2023/09/30 09:00:56;;;;;;;11.27;5.47;;;;;;;31.23;26.96;99810.41;5071073;28;20219;-62
2023/09/30 09:03:23;;;;;;;17.10;4.57;;;;;;;31.64;26.67;99804.38;5069061;28;20672;-62
2023/09/30 09:05:56;;;;;;;9.70;5.07;;;;;;;31.90;26.29;99800.47;5076219;28;20187;-64
2023/09/30 09:08:24;;;;;;;9.93;4.90;;;;;;;32.11;25.93;99806.84;5081289;28;20215;-65
2023/09/30 09:10:56;;;;;;;4.73;4.10;;;;;;;32.06;24.85;99807.00;5068218;28;20593;-64
2023/09/30 09:13:23;;;;;;;11.37;4.63;;;;;;;31.90;25.08;99800.47;5073177;28;20302;-63
2023/09/30 09:15:50;;;;;;;17.70;5.63;;;;;;;32.01;25.56;99798.94;5079029;28;20188;-63
2023/09/30 09:18:33;;;;;;;10.50;4.77;;;;;;;32.12;25.62;99794.72;5077626;28;20278;-63
2023/09/30 09:21:10;;;;;;;9.63;4.30;;;;;;;32.30;26.10;99795.47;5080594;28;20239;-62
2023/09/30 09:23:42;;;;;;;11.70;5.03;;;;;;;32.49;25.43;99793.91;5068562;28;20176;-64
2023/09/30 09:26:10;;;;;;;16.93;5.50;;;;;;;32.61;25.33;99795.91;5069014;28;20188;-64
2023/09/30 09:28:38;;;;;;;12.00;5.37;;;;;;;32.78;25.16;99788.34;5069343;28;20187;-64
2023/09/30 09:31:21;;;;;;;16.63;5.07;;;;;;;32.31;25.24;99786.88;5069835;28;20586;-62
2023/09/30 09:33:48;;;;;;;8.53;5.30;;;;;;;31.90;25.34;99786.72;5069119;28;20271;-62
2023/09/30 09:36:15;;;;;;;10.60;5.87;;;;;;;32.35;26.42;99779.59;5068708;28;20637;-63
2023/09/30 09:38:49;;;;;;;9.30;4.70;;;;;;;32.59;26.19;99776.97;5068398;28;20301;-63
2023/09/30 09:41:16;;;;;;;12.87;6.33;;;;;;;32.83;25.82;99777.16;5072927;28;20690;-62
2023/09/30 09:43:43;;;;;;;11.30;4.20;;;;;;;32.89;23.87;99770.34;5087989;28;20183;-64
2023/09/30 09:46:11;;;;;;;11.17;5.43;;;;;;;32.42;25.64;99768.06;5088112;28;20219;-63
2023/09/30 09:48:38;;;;;;;9.47;5.47;;;;;;;32.44;26.16;99766.59;5089408;28;20191;-62
2023/09/30 09:51:07;;;;;;;11.20;4.60;;;;;;;32.14;23.22;99764.91;5089845;28;20199;-62
2023/09/30 09:53:37;;;;;;;9.77;4.47;;;;;;;32.23;23.44;99779.47;5089638;28;20678;-62
2023/09/30 09:56:09;;;;;;;8.87;4.30;;;;;;;32.13;23.52;99766.06;5089029;28;20270;-64
2023/09/30 09:58:38;;;;;;;16.33;4.07;;;;;;;31.54;23.50;99758.03;5069632;28;20223;-63
2023/09/30 10:01:06;;;;;;;11.27;3.83;;;;;;;31.89;23.82;99743.84;5068686;28;20223;-62
2023/09/30 10:03:33;;;;;;;9.43;4.90;;;;;;;31.65;24.45;99740.06;5068296;28;20196;-63
2023/09/30 10:06:00;;;;;;;15.93;5.03;;;;;;;31.24;24.73;99743.38;5071780;28;20199;-63
2023/09/30 10:08:34;;;;;;;9.73;3.87;;;;;;;31.55;24.60;99741.22;5078627;28;20194;-63
2023/09/30 10:11:02;;;;;;;7.23;3.87;;;;;;;31.83;23.82;99742.44;5088850;28;20535;-62
2023/09/30 10:13:52;;;;;;;11.43;4.37;;;;;;;32.02;24.20;99740.09;5083213;28;20252;-65
2023/09/30 10:16:53;;;;;;;8.20;4.27;;;;;;;31.99;24.92;99739.94;5070763;28;20278;-64
2023/09/30 10:19:23;;;;;;;9.70;4.37;;;;;;;32.14;23.76;99729.19;5088393;28;20203;-64
2023/09/30 10:22:21;;;;;;;10.83;4.63;;;;;;;31.95;23.58;99728.00;5079373;28;20287;-65
2023/09/30 10:24:50;;;;;;;7.63;3.50;;;;;;;31.34;23.46;99721.09;5085373;28;20218;-63
2023/09/30 10:27:34;;;;;;;8.53;4.83;;;;;;;31.52;26.04;99714.41;5069443;28;20448;-65
2023/09/30 10:30:10;;;;;;;7.87;4.80;;;;;;;31.78;25.57;99712.41;5072973;28;20670;-66
2023/09/30 10:33:12;;;;;;;5.20;3.80;;;;;;;31.46;23.33;99714.91;5073619;28;20198;-66
2023/09/30 10:35:49;;;;;;;6.07;4.53;;;;;;;31.28;23.02;99716.09;5072936;28;20238;-67
2023/09/30 10:38:42;;;;;;;7.20;4.00;;;;;;;31.27;23.29;99711.75;5073917;28;20236;-68
2023/09/30 10:41:11;;;;;;;10.60;4.20;;;;;;;31.04;24.16;99707.53;5013632;28;1120769;-66
2023/09/30 10:43:40;;;;;;;9.07;4.67;;;;;;;31.28;25.15;99708.63;5072448;28;20727;-65
2023/09/30 10:46:36;;;;;;;9.37;4.50;;;;;;;31.52;23.99;99692.41;5075984;28;20196;-65
2023/09/30 10:49:34;;;;;;;10.63;4.07;;;;;;;31.58;22.89;99695.78;5076962;28;20195;-66
2023/09/30 10:52:02;;;;;;;7.73;4.30;;;;;;;31.63;23.53;99692.84;5074839;28;20206;-67
2023/09/30 10:54:29;;;;;;;6.20;3.63;;;;;;;31.68;23.04;99693.50;5076393;28;20196;-65
2023/09/30 10:56:58;;;;;;;5.00;4.30;;;;;;;31.34;23.41;99685.38;5072823;28;20616;-64
2023/09/30 10:59:27;;;;;;;6.43;4.17;;;;;;;31.51;23.57;99682.56;5074360;28;20385;-65
2023/09/30 11:01:55;;;;;;;10.43;4.73;;;;;;;31.58;23.88;99684.81;5075627;28;20211;-65
2023/09/30 11:04:22;;;;;;;8.37;4.50;;;;;;;31.47;23.84;99676.13;5074609;28;20200;-65
2023/09/30 11:06:51;;;;;;;7.60;4.27;;;;;;;31.63;23.80;99676.38;5075478;28;20200;-66
2023/09/30 11:09:19;;;;;;;9.77;5.00;;;;;;;31.80;23.30;99676.34;5076259;28;20245;-69
2023/09/30 11:11:49;;;;;;;5.87;4.20;;;;;;;31.73;22.20;99676.03;5076852;28;20199;-64
2023/09/30 11:14:20;;;;;;;14.33;4.07;;;;;;;31.63;22.32;99674.44;5072992;28;20218;-65
2023/09/30 11:16:48;;;;;;;5.73;4.10;;;;;;;31.37;22.79;99673.75;5071398;28;20619;-65
2023/09/30 11:19:16;;;;;;;7.13;4.60;;;;;;;31.41;22.79;99673.88;5074424;28;20195;-65
2023/09/30 11:21:44;;;;;;;12.13;4.50;;;;;;;31.42;23.13;99665.31;5074234;28;20312;-64
2023/09/30 11:24:12;;;;;;;8.17;3.97;;;;;;;31.47;22.76;99662.38;5074810;28;20612;-65
2023/09/30 11:26:41;;;;;;;8.43;4.20;;;;;;;31.43;25.04;99655.94;5076016;28;20278;-65
2023/09/30 11:29:10;;;;;;;16.97;4.67;;;;;;;31.52;24.16;99651.22;5072948;28;20686;-66
2023/09/30 11:31:40;;;;;;;11.03;4.20;;;;;;;31.49;22.95;99660.13;5076469;28;20224;-66
2023/09/30 11:34:08;;;;;;;7.77;4.00;;;;;;;31.54;22.48;99654.47;5076406;28;20212;-66
2023/09/30 11:36:37;;;;;;;12.87;4.23;;;;;;;31.04;23.34;99652.66;5076380;28;20506;-65